Time;durP1;ratioP1;P1;durP2;ratioP2;P2;SDS_P1;SDS_P2;PMS_P1;PMS_P2;Temp;Humidity;BMP_temperature;BMP_pressure;BME280_temperature;BME280_humidity;BME280_pressure;Samples;Min_cycle;Max_cycle;Signal;HPM_P1;HPM_P2
2020/12/26 08:36:36;;;;;;;2.17;1.60;;;3.40;99.90;;;;;;4860788;29;20235;-75
2020/12/26 08:39:03;;;;;;;2.53;1.10;;;3.50;99.90;;;;;;4862994;29;20238;-75
2020/12/26 08:41:31;;;;;;;2.03;1.10;;;3.50;99.90;;;;;;4863044;29;20228;-75
2020/12/26 08:43:58;;;;;;;2.23;1.20;;;3.50;99.90;;;;;;4862756;29;20235;-76
2020/12/26 08:46:25;;;;;;;2.37;1.20;;;3.50;99.90;;;;;;4862599;29;20567;-75
2020/12/26 08:48:52;;;;;;;3.43;1.30;;;3.70;99.90;;;;;;4862890;29;20667;-76
2020/12/26 08:51:20;;;;;;;2.27;1.23;;;3.80;99.90;;;;;;4862397;29;20715;-75
2020/12/26 08:53:49;;;;;;;3.60;1.37;;;3.90;99.90;;;;;;4862690;29;20223;-75
2020/12/26 08:56:15;;;;;;;1.60;0.83;;;4.00;99.90;;;;;;4862157;29;20264;-74
2020/12/26 08:58:48;;;;;;;1.30;0.83;;;4.00;99.90;;;;;;4862502;29;20220;-75
2020/12/26 09:01:15;;;;;;;2.50;0.90;;;4.20;99.90;;;;;;4861941;29;20274;-75
2020/12/26 09:03:48;;;;;;;3.83;1.00;;;4.20;99.90;;;;;;4861924;29;20247;-74
2020/12/26 09:06:14;;;;;;;3.20;0.77;;;4.30;99.90;;;;;;4861731;29;20243;-73
2020/12/26 09:08:40;;;;;;;1.60;0.80;;;4.50;99.90;;;;;;4862186;29;20208;-80
2020/12/26 09:11:09;;;;;;;1.97;0.77;;;4.40;99.90;;;;;;4861911;29;20239;-75
2020/12/26 09:13:37;;;;;;;1.60;0.90;;;4.40;99.90;;;;;;4861516;29;20216;-75
2020/12/26 09:16:09;;;;;;;3.50;1.00;;;4.50;99.90;;;;;;4861957;29;20216;-74
2020/12/26 09:18:37;;;;;;;2.73;1.27;;;4.60;99.90;;;;;;4859673;29;20723;-74
2020/12/26 09:21:04;;;;;;;2.50;0.87;;;4.60;99.90;;;;;;4861167;29;20624;-75
2020/12/26 09:23:32;;;;;;;4.97;1.33;;;4.70;99.90;;;;;;4861559;29;20212;-74
2020/12/26 09:26:13;;;;;;;2.80;1.30;;;4.80;99.90;;;;;;4860508;29;20216;-73
2020/12/26 09:28:51;;;;;;;3.17;1.60;;;4.90;99.90;;;;;;4861239;29;20681;-73
2020/12/26 09:31:19;;;;;;;3.37;1.53;;;4.80;99.90;;;;;;4861457;29;20232;-73
2020/12/26 09:33:45;;;;;;;3.47;1.50;;;4.80;99.90;;;;;;4860354;29;20276;-74
2020/12/26 09:36:13;;;;;;;3.03;1.50;;;4.60;99.90;;;;;;4861229;29;20272;-74
2020/12/26 09:38:40;;;;;;;3.17;1.30;;;4.50;99.90;;;;;;4861107;29;20247;-74
2020/12/26 09:41:15;;;;;;;3.10;1.63;;;4.50;99.90;;;;;;4860344;29;20240;-73
2020/12/26 09:43:42;;;;;;;4.87;1.60;;;4.50;99.90;;;;;;4861023;29;20224;-73
2020/12/26 09:46:09;;;;;;;4.80;1.60;;;4.50;99.90;;;;;;4861398;29;20222;-74
2020/12/26 09:48:35;;;;;;;3.83;1.63;;;4.60;99.90;;;;;;4860669;29;20238;-74
2020/12/26 09:51:01;;;;;;;8.97;1.70;;;4.70;99.90;;;;;;4860594;29;20216;-74
2020/12/26 09:53:28;;;;;;;4.70;1.70;;;4.80;99.90;;;;;;4861153;29;20208;-75
2020/12/26 09:55:54;;;;;;;4.80;1.83;;;4.90;99.90;;;;;;4860919;29;20567;-75
2020/12/26 09:58:21;;;;;;;3.80;2.00;;;4.90;99.90;;;;;;4861012;29;20268;-75
2020/12/26 10:00:47;;;;;;;5.50;1.93;;;4.90;99.90;;;;;;4860852;29;20228;-77
2020/12/26 10:03:14;;;;;;;5.93;1.90;;;5.00;99.90;;;;;;4860672;29;20212;-76
2020/12/26 10:05:41;;;;;;;4.13;1.80;;;5.20;99.90;;;;;;4860140;29;20239;-76
2020/12/26 10:08:07;;;;;;;6.17;2.03;;;5.40;99.90;;;;;;4860980;29;20208;-75
2020/12/26 10:10:33;;;;;;;5.67;2.03;;;5.40;99.90;;;;;;4860165;29;20228;-74
2020/12/26 10:12:59;;;;;;;9.37;1.90;;;5.50;99.90;;;;;;4853485;29;20272;-75
2020/12/26 10:15:26;;;;;;;7.13;2.20;;;5.60;99.90;;;;;;4843879;29;20217;-75
2020/12/26 10:17:52;;;;;;;7.80;2.20;;;5.80;99.90;;;;;;4856318;29;20208;-75
2020/12/26 10:20:19;;;;;;;3.70;1.53;;;5.80;99.90;;;;;;4860150;29;20223;-75
2020/12/26 10:22:45;;;;;;;4.03;2.13;;;5.80;99.90;;;;;;4859770;29;20232;-75
2020/12/26 10:25:11;;;;;;;3.73;1.87;;;5.90;99.90;;;;;;4854115;29;20627;-72
2020/12/26 10:27:37;;;;;;;2.73;1.47;;;6.00;99.90;;;;;;4846116;29;20216;-73
2020/12/26 10:30:04;;;;;;;7.27;1.33;;;6.10;99.90;;;;;;4857327;29;20347;-74
2020/12/26 10:32:31;;;;;;;3.40;1.40;;;6.00;99.90;;;;;;4857812;29;20228;-79
2020/12/26 10:34:57;;;;;;;4.00;1.73;;;5.90;99.90;;;;;;4858472;29;20227;-75
2020/12/26 10:37:23;;;;;;;3.50;1.43;;;5.90;99.90;;;;;;4858264;29;20219;-73
2020/12/26 10:39:49;;;;;;;3.77;1.20;;;5.70;99.90;;;;;;4854453;29;20204;-70
2020/12/26 10:42:15;;;;;;;5.50;1.20;;;5.70;99.90;;;;;;4857241;29;20260;-83
2020/12/26 10:44:42;;;;;;;5.17;1.50;;;5.80;99.90;;;;;;4850364;29;20237;-73
2020/12/26 10:47:08;;;;;;;5.03;1.87;;;5.80;99.90;;;;;;4840340;29;20215;-74
2020/12/26 10:49:35;;;;;;;1.93;1.23;;;5.90;99.90;;;;;;4845482;29;20675;-73
2020/12/26 10:52:01;;;;;;;2.23;1.20;;;6.00;99.90;;;;;;4855885;29;20236;-74
2020/12/26 10:54:27;;;;;;;4.50;1.70;;;6.10;99.90;;;;;;4844321;29;20285;-74
2020/12/26 10:56:53;;;;;;;3.87;1.40;;;6.30;99.90;;;;;;4846871;29;20219;-74
2020/12/26 10:59:20;;;;;;;2.00;0.80;;;6.40;99.90;;;;;;4863613;29;20215;-75
2020/12/26 11:01:46;;;;;;;4.50;1.57;;;6.50;99.90;;;;;;4862482;29;20236;-74
2020/12/26 11:04:13;;;;;;;3.17;1.60;;;6.50;99.90;;;;;;4862813;29;20285;-74
2020/12/26 11:06:40;;;;;;;2.47;1.30;;;6.50;99.90;;;;;;4862845;29;20236;-75
2020/12/26 11:09:06;;;;;;;4.90;1.33;;;6.60;99.90;;;;;;4862161;29;20208;-74
2020/12/26 11:11:32;;;;;;;3.03;1.27;;;6.50;99.90;;;;;;4862320;29;20689;-74
2020/12/26 11:13:58;;;;;;;2.87;1.70;;;6.50;99.90;;;;;;4862901;29;20268;-74
2020/12/26 11:16:27;;;;;;;3.80;1.60;;;6.50;99.90;;;;;;4862767;29;20571;-74
2020/12/26 11:18:53;;;;;;;5.17;1.57;;;6.50;99.90;;;;;;4863246;29;20223;-76
2020/12/26 11:21:19;;;;;;;2.57;1.40;;;6.50;99.90;;;;;;4862426;29;20246;-76
2020/12/26 11:23:46;;;;;;;5.50;2.00;;;6.50;99.90;;;;;;4862594;29;20232;-74
2020/12/26 11:26:13;;;;;;;4.37;1.70;;;6.50;99.90;;;;;;4862852;29;20276;-75
2020/12/26 11:28:40;;;;;;;2.10;0.80;;;6.50;99.90;;;;;;4862832;29;20219;-75
2020/12/26 11:31:06;;;;;;;2.97;1.60;;;6.50;99.90;;;;;;4862449;29;20544;-75
2020/12/26 11:33:33;;;;;;;2.13;0.97;;;6.50;99.90;;;;;;4862819;29;20231;-75
2020/12/26 11:35:59;;;;;;;2.13;1.10;;;6.60;99.90;;;;;;4862629;29;20679;-75
2020/12/26 11:38:25;;;;;;;2.30;0.97;;;6.70;99.90;;;;;;4862848;29;20233;-75
2020/12/26 11:40:52;;;;;;;2.13;0.90;;;7.00;99.90;;;;;;4858553;29;20220;-75
2020/12/26 11:43:18;;;;;;;1.50;0.87;;;7.10;99.90;;;;;;4843784;29;20213;-75
2020/12/26 11:45:44;;;;;;;1.67;1.10;;;7.30;99.90;;;;;;4844330;29;20712;-75
2020/12/26 11:48:11;;;;;;;4.60;0.97;;;7.40;99.90;;;;;;4844209;29;20217;-75
2020/12/26 11:50:37;;;;;;;1.97;0.87;;;7.40;99.90;;;;;;4843943;29;20280;-75
2020/12/26 11:53:03;;;;;;;3.93;1.00;;;7.30;99.90;;;;;;4857745;29;20636;-80
2020/12/26 11:55:30;;;;;;;1.60;0.80;;;7.00;99.90;;;;;;4862001;29;20272;-78
2020/12/26 11:57:57;;;;;;;2.03;1.17;;;7.10;99.90;;;;;;4863027;29;20208;-80
2020/12/26 12:00:25;;;;;;;5.87;1.50;;;7.10;99.90;;;;;;4860715;29;20673;-80
2020/12/26 12:02:51;;;;;;;4.87;0.90;;;7.20;99.90;;;;;;4861460;29;20236;-77
2020/12/26 12:05:17;;;;;;;4.43;1.33;;;7.30;99.90;;;;;;4861136;29;20236;-77
2020/12/26 12:07:44;;;;;;;2.47;1.00;;;7.30;99.90;;;;;;4862440;29;20220;-77
2020/12/26 12:10:10;;;;;;;2.93;1.17;;;7.10;99.90;;;;;;4862457;29;20241;-77
2020/12/26 12:12:36;;;;;;;2.43;1.00;;;7.20;99.90;;;;;;4861770;29;20232;-77
2020/12/26 12:15:04;;;;;;;1.87;0.60;;;7.10;99.90;;;;;;4862003;29;20208;-77
2020/12/26 12:17:30;;;;;;;3.40;0.97;;;7.00;99.90;;;;;;4862260;29;20212;-77
2020/12/26 12:19:56;;;;;;;1.30;1.00;;;6.90;99.90;;;;;;4858247;29;20215;-77
2020/12/26 12:22:22;;;;;;;2.90;0.93;;;6.90;99.90;;;;;;4861732;29;20248;-77
2020/12/26 12:24:48;;;;;;;4.23;1.10;;;6.90;99.90;;;;;;4861250;29;20243;-77
2020/12/26 12:27:15;;;;;;;3.03;1.10;;;7.00;99.90;;;;;;4862061;29;20679;-78
2020/12/26 12:29:41;;;;;;;2.33;0.90;;;6.80;99.90;;;;;;4863083;29;20303;-77
2020/12/26 12:32:11;;;;;;;1.60;0.87;;;6.90;99.90;;;;;;4861639;29;20234;-77
2020/12/26 12:34:37;;;;;;;3.90;1.07;;;6.90;99.90;;;;;;4862790;29;20220;-77
2020/12/26 12:37:04;;;;;;;7.90;1.37;;;6.90;99.90;;;;;;4863105;29;20238;-78
2020/12/26 12:39:30;;;;;;;2.10;1.10;;;6.90;99.90;;;;;;4862437;29;20208;-78
2020/12/26 12:41:56;;;;;;;5.00;1.43;;;7.00;99.90;;;;;;4862065;29;20240;-78
2020/12/26 12:44:22;;;;;;;3.17;1.30;;;7.00;99.90;;;;;;4862131;29;20240;-78
2020/12/26 12:46:48;;;;;;;2.70;1.20;;;7.00;99.90;;;;;;4862565;29;20291;-78
2020/12/26 12:49:15;;;;;;;4.40;1.33;;;7.00;99.90;;;;;;4862182;29;20219;-78
2020/12/26 12:51:42;;;;;;;4.03;1.47;;;7.10;99.90;;;;;;4862170;29;20264;-77
2020/12/26 12:54:08;;;;;;;3.70;1.73;;;7.10;99.90;;;;;;4862101;29;20224;-77
2020/12/26 12:56:35;;;;;;;2.30;1.27;;;7.10;99.90;;;;;;4862146;29;20219;-78
2020/12/26 12:59:01;;;;;;;2.37;1.27;;;7.20;99.90;;;;;;4862163;29;20629;-78
2020/12/26 13:01:27;;;;;;;5.30;1.30;;;7.10;99.90;;;;;;4862225;29;20284;-77
2020/12/26 13:03:53;;;;;;;4.80;1.50;;;7.00;99.90;;;;;;4862156;29;20251;-79
2020/12/26 13:06:20;;;;;;;6.10;1.43;;;7.00;99.90;;;;;;4861351;29;20636;-79
2020/12/26 13:08:47;;;;;;;2.73;1.20;;;7.00;99.90;;;;;;4861007;29;20557;-77
2020/12/26 13:11:13;;;;;;;3.73;1.70;;;7.10;99.90;;;;;;4842854;29;20779;-77
2020/12/26 13:13:40;;;;;;;2.43;1.50;;;7.10;99.90;;;;;;4843415;29;20220;-77
2020/12/26 13:16:06;;;;;;;2.87;1.33;;;7.10;99.90;;;;;;4842813;29;20245;-77
2020/12/26 13:18:32;;;;;;;3.60;1.30;;;7.20;99.90;;;;;;4843322;29;20216;-77
2020/12/26 13:20:58;;;;;;;4.53;0.93;;;7.20;99.90;;;;;;4843286;29;20241;-77
2020/12/26 13:23:25;;;;;;;2.90;1.20;;;7.20;99.90;;;;;;4843567;29;20578;-76
2020/12/26 13:25:52;;;;;;;3.97;1.03;;;7.20;99.90;;;;;;4843183;29;20247;-77
2020/12/26 13:28:18;;;;;;;1.23;0.80;;;7.20;99.90;;;;;;4843435;29;20212;-79
2020/12/26 13:30:44;;;;;;;1.93;1.23;;;7.30;99.90;;;;;;4843322;29;20209;-77
2020/12/26 13:33:11;;;;;;;2.53;1.27;;;7.40;99.90;;;;;;4842998;29;20719;-77
2020/12/26 13:35:37;;;;;;;2.70;1.00;;;7.40;99.90;;;;;;4842867;29;20300;-77
2020/12/26 13:38:03;;;;;;;1.93;1.20;;;7.40;99.90;;;;;;4842739;29;20213;-76
2020/12/26 13:40:30;;;;;;;2.90;1.10;;;7.30;99.90;;;;;;4844606;29;20224;-75
2020/12/26 13:42:58;;;;;;;3.37;1.20;;;7.30;99.90;;;;;;4843637;29;20601;-77
2020/12/26 13:45:25;;;;;;;3.13;1.30;;;7.20;99.90;;;;;;4843207;29;20247;-77
2020/12/26 13:47:51;;;;;;;1.60;0.90;;;7.30;99.90;;;;;;4843248;29;20236;-78
2020/12/26 13:50:17;;;;;;;2.73;1.07;;;7.20;99.90;;;;;;4842957;29;20215;-77
2020/12/26 13:52:43;;;;;;;2.63;1.30;;;7.20;99.90;;;;;;4842260;29;20293;-77
2020/12/26 13:55:10;;;;;;;2.67;0.93;;;7.10;99.90;;;;;;4842484;29;20610;-76
2020/12/26 13:57:37;;;;;;;1.00;0.80;;;7.00;99.90;;;;;;4842816;29;20216;-77
2020/12/26 14:00:04;;;;;;;3.73;1.10;;;6.80;99.90;;;;;;4842854;29;20212;-79
2020/12/26 14:02:30;;;;;;;2.53;1.60;;;6.80;99.90;;;;;;4843003;29;20262;-77
2020/12/26 14:04:57;;;;;;;3.03;1.30;;;6.80;99.90;;;;;;4842480;29;20596;-77
2020/12/26 14:07:23;;;;;;;3.07;1.30;;;6.80;99.90;;;;;;4842905;29;20217;-77
2020/12/26 14:09:49;;;;;;;4.40;1.30;;;6.80;99.90;;;;;;4842479;29;20223;-79
2020/12/26 14:12:15;;;;;;;3.77;1.40;;;6.90;99.90;;;;;;4846636;29;20228;-81
2020/12/26 14:14:42;;;;;;;4.17;1.13;;;6.90;99.90;;;;;;4856880;29;20295;-78
2020/12/26 14:17:09;;;;;;;1.70;1.10;;;6.90;99.90;;;;;;4859845;29;20246;-78
2020/12/26 14:19:35;;;;;;;4.40;1.10;;;6.70;99.90;;;;;;4858751;29;20216;-78
2020/12/26 14:22:03;;;;;;;9.10;1.50;;;6.70;99.90;;;;;;4858921;29;20228;-77
2020/12/26 14:24:29;;;;;;;3.93;1.30;;;6.80;99.90;;;;;;4859274;29;20316;-78
2020/12/26 14:26:55;;;;;;;3.83;1.37;;;6.90;99.90;;;;;;4859719;29;20216;-79
2020/12/26 14:29:22;;;;;;;1.37;1.10;;;6.90;99.90;;;;;;4859052;29;20276;-77
2020/12/26 14:31:49;;;;;;;2.07;1.37;;;6.80;99.90;;;;;;4859782;29;20263;-79
2020/12/26 14:34:16;;;;;;;1.80;1.30;;;6.80;99.90;;;;;;4859601;29;20252;-77
2020/12/26 14:36:43;;;;;;;2.73;1.30;;;6.80;99.90;;;;;;4859194;29;20212;-79
2020/12/26 14:39:10;;;;;;;1.40;1.10;;;6.80;99.90;;;;;;4859467;29;20299;-79
2020/12/26 14:41:36;;;;;;;3.23;0.93;;;6.90;99.90;;;;;;4906863;23;20240;-77
2020/12/26 14:44:02;;;;;;;5.10;1.10;;;6.80;99.90;;;;;;4896537;29;20214;-75
2020/12/26 14:46:28;;;;;;;3.93;1.30;;;6.80;99.90;;;;;;4896173;29;20611;-77
2020/12/26 14:48:55;;;;;;;2.33;1.10;;;6.80;99.90;;;;;;4896239;29;20254;-78
2020/12/26 14:51:21;;;;;;;3.53;1.50;;;6.70;99.90;;;;;;4894436;29;20226;-75
2020/12/26 14:53:49;;;;;;;1.47;1.00;;;6.70;99.90;;;;;;4908240;29;20202;-78
2020/12/26 14:56:16;;;;;;;3.23;1.07;;;6.70;99.90;;;;;;4906379;29;20657;-77
2020/12/26 14:58:43;;;;;;;1.20;0.90;;;6.70;99.90;;;;;;4907730;29;20203;-78
2020/12/26 15:01:09;;;;;;;1.20;0.90;;;6.70;99.90;;;;;;4894895;29;20221;-78
2020/12/26 15:03:36;;;;;;;2.77;1.00;;;6.70;99.90;;;;;;4891548;29;20214;-77
2020/12/26 15:06:03;;;;;;;4.70;1.20;;;6.60;99.90;;;;;;4895969;29;20253;-77
2020/12/26 15:08:29;;;;;;;1.47;1.10;;;6.50;99.90;;;;;;4896596;29;20211;-79
2020/12/26 15:10:55;;;;;;;6.43;1.07;;;6.40;99.90;;;;;;4895784;29;20210;-76
2020/12/26 15:13:21;;;;;;;2.70;1.00;;;6.50;99.90;;;;;;4910425;29;20220;-78
2020/12/26 15:15:47;;;;;;;5.43;0.93;;;6.60;99.90;;;;;;4914741;29;20213;-78
2020/12/26 15:18:14;;;;;;;2.40;1.00;;;6.50;99.90;;;;;;4914416;29;20220;-75
2020/12/26 15:20:40;;;;;;;2.20;0.97;;;6.40;99.90;;;;;;4914696;29;20324;-77
2020/12/26 15:23:07;;;;;;;2.87;0.80;;;6.50;99.90;;;;;;4914587;29;20233;-75
2020/12/26 15:25:33;;;;;;;2.17;1.17;;;6.50;99.90;;;;;;4915428;29;20241;-73
2020/12/26 15:27:59;;;;;;;1.70;1.10;;;6.50;99.90;;;;;;4914799;29;20287;-76
2020/12/26 15:30:25;;;;;;;5.73;1.17;;;6.50;99.90;;;;;;4914685;29;20209;-74
2020/12/26 15:32:52;;;;;;;2.70;1.17;;;6.40;99.90;;;;;;4912088;29;20230;-74
2020/12/26 15:35:18;;;;;;;3.07;1.40;;;6.40;99.90;;;;;;4914371;29;20210;-74
2020/12/26 15:37:44;;;;;;;3.57;1.53;;;6.40;99.90;;;;;;4915038;29;20225;-79
2020/12/26 15:40:11;;;;;;;3.20;1.20;;;6.40;99.90;;;;;;4916394;29;20201;-76
2020/12/26 15:42:38;;;;;;;1.40;0.90;;;6.50;99.90;;;;;;4918173;29;20233;-76
2020/12/26 15:45:04;;;;;;;5.73;1.20;;;6.30;99.90;;;;;;4918590;29;20238;-75
2020/12/26 15:47:30;;;;;;;6.60;1.87;;;6.30;99.90;;;;;;4918424;29;20605;-76
2020/12/26 15:49:56;;;;;;;1.57;1.10;;;6.30;99.90;;;;;;4918504;29;20240;-76
2020/12/26 15:52:22;;;;;;;2.73;1.23;;;6.30;99.90;;;;;;4915240;29;20685;-75
2020/12/26 15:54:49;;;;;;;1.10;0.87;;;6.40;99.90;;;;;;4918256;29;20261;-77
2020/12/26 15:57:16;;;;;;;1.37;0.70;;;6.30;99.90;;;;;;4915102;29;20213;-78
2020/12/26 15:59:42;;;;;;;2.63;1.20;;;6.20;99.90;;;;;;4917879;29;20214;-75
2020/12/26 16:02:08;;;;;;;4.43;1.10;;;6.30;99.90;;;;;;4916429;29;20296;-78
2020/12/26 16:04:34;;;;;;;3.80;1.50;;;6.20;99.90;;;;;;4918163;29;20233;-76
2020/12/26 16:07:00;;;;;;;2.03;1.47;;;6.20;99.90;;;;;;4903082;29;20218;-78
2020/12/26 16:09:27;;;;;;;1.57;0.83;;;6.30;99.90;;;;;;4899433;29;20214;-76
2020/12/26 16:11:53;;;;;;;2.57;1.10;;;6.20;99.90;;;;;;4903003;29;20617;-78
2020/12/26 16:14:20;;;;;;;2.17;0.97;;;6.20;99.90;;;;;;4917714;29;20213;-79
2020/12/26 16:16:46;;;;;;;4.10;1.23;;;6.20;99.90;;;;;;4916638;29;20218;-80
2020/12/26 16:19:13;;;;;;;1.93;1.13;;;6.20;99.90;;;;;;4917404;29;20213;-78
2020/12/26 16:21:39;;;;;;;2.50;1.10;;;6.10;99.90;;;;;;4908586;29;20222;-78
2020/12/26 16:24:05;;;;;;;2.87;0.87;;;6.10;99.90;;;;;;4917616;29;20214;-80
2020/12/26 16:26:32;;;;;;;3.17;1.10;;;6.00;99.90;;;;;;4908948;29;20214;-76
2020/12/26 16:28:59;;;;;;;2.00;1.10;;;6.00;99.90;;;;;;4918277;29;20218;-78
2020/12/26 16:31:32;;;;;;;2.73;1.40;;;6.00;99.90;;;;;;4917645;29;20550;-79
2020/12/26 16:33:58;;;;;;;3.30;1.20;;;6.00;99.90;;;;;;4897387;29;20206;-77
2020/12/26 16:36:25;;;;;;;2.87;1.20;;;6.00;99.90;;;;;;4898679;29;20221;-79
2020/12/26 16:38:51;;;;;;;2.73;1.27;;;6.00;99.90;;;;;;4906218;29;20198;-76
2020/12/26 16:41:17;;;;;;;2.03;0.97;;;6.00;99.90;;;;;;4899738;29;20258;-74
2020/12/26 16:43:45;;;;;;;1.20;0.90;;;6.00;99.90;;;;;;4900847;29;20218;-76
2020/12/26 16:46:11;;;;;;;1.87;1.03;;;6.00;99.90;;;;;;4906881;29;20263;-76
2020/12/26 16:48:38;;;;;;;2.03;0.97;;;6.00;99.90;;;;;;4898764;29;20206;-78
2020/12/26 16:51:04;;;;;;;1.77;1.03;;;5.90;99.90;;;;;;4907871;29;20657;-77
2020/12/26 16:53:31;;;;;;;1.00;0.80;;;5.90;99.90;;;;;;4914306;29;20217;-79
2020/12/26 16:55:57;;;;;;;2.57;1.30;;;5.90;99.90;;;;;;4897320;29;20214;-82
2020/12/26 16:58:24;;;;;;;4.37;1.20;;;5.90;99.90;;;;;;4897865;29;20214;-78
2020/12/26 17:00:50;;;;;;;3.10;1.10;;;5.90;99.90;;;;;;4912016;29;20206;-78
2020/12/26 17:03:16;;;;;;;4.63;1.53;;;5.90;99.90;;;;;;4916097;29;20720;-77
2020/12/26 17:05:44;;;;;;;3.17;1.13;;;5.90;99.90;;;;;;4916344;29;20245;-78
2020/12/26 17:08:10;;;;;;;1.67;0.90;;;5.90;99.90;;;;;;4916867;29;20218;-78
2020/12/26 17:10:36;;;;;;;1.93;1.10;;;5.90;99.90;;;;;;4911013;29;20237;-81
2020/12/26 17:13:03;;;;;;;1.10;0.87;;;5.90;99.90;;;;;;4909662;29;20244;-77
2020/12/26 17:15:29;;;;;;;1.90;1.20;;;6.00;99.90;;;;;;4898261;29;20285;-76
2020/12/26 17:17:55;;;;;;;3.83;1.03;;;6.00;99.90;;;;;;4897723;29;20210;-76
2020/12/26 17:20:21;;;;;;;1.60;0.93;;;6.00;99.90;;;;;;4895488;29;20206;-77
2020/12/26 17:22:48;;;;;;;2.47;0.93;;;6.00;99.90;;;;;;4901531;29;20221;-77
2020/12/26 17:25:14;;;;;;;1.80;1.23;;;6.00;99.90;;;;;;4912752;29;20256;-75
2020/12/26 17:27:41;;;;;;;3.27;0.90;;;6.00;99.90;;;;;;4916390;29;20213;-73
2020/12/26 17:30:07;;;;;;;1.80;1.20;;;6.10;99.90;;;;;;4903128;29;20241;-75
2020/12/26 17:32:33;;;;;;;2.80;1.77;;;6.10;99.90;;;;;;4898735;29;20233;-73
2020/12/26 17:34:59;;;;;;;1.93;1.23;;;6.10;99.90;;;;;;4916131;29;20604;-73
2020/12/26 17:37:25;;;;;;;2.43;1.50;;;6.10;99.90;;;;;;4916422;29;20209;-74
2020/12/26 17:39:52;;;;;;;2.67;1.53;;;5.90;99.90;;;;;;4906097;29;20881;-73
2020/12/26 17:42:19;;;;;;;2.93;1.77;;;5.80;99.90;;;;;;4891763;29;20246;-73
2020/12/26 17:44:45;;;;;;;3.13;1.80;;;5.80;99.90;;;;;;4893153;29;20238;-75
2020/12/26 17:47:11;;;;;;;3.27;1.83;;;5.70;99.90;;;;;;4897002;29;20543;-75
2020/12/26 17:49:37;;;;;;;3.23;1.80;;;5.60;99.90;;;;;;4896184;29;20214;-75
2020/12/26 17:52:03;;;;;;;2.73;1.90;;;5.60;99.90;;;;;;4900829;29;20232;-76
2020/12/26 17:54:29;;;;;;;4.40;2.13;;;5.70;99.90;;;;;;4906418;29;20225;-76
2020/12/26 17:56:59;;;;;;;2.37;1.40;;;5.70;99.90;;;;;;4915851;29;20209;-75
2020/12/26 17:59:25;;;;;;;3.77;2.30;;;5.60;99.90;;;;;;4916074;29;20214;-74
2020/12/26 18:01:52;;;;;;;2.70;2.00;;;5.60;99.90;;;;;;4915355;29;21008;-74
2020/12/26 18:04:18;;;;;;;3.80;2.13;;;5.60;99.90;;;;;;4915950;29;20612;-77
2020/12/26 18:06:45;;;;;;;4.80;2.40;;;5.50;99.90;;;;;;4915877;29;20261;-74
2020/12/26 18:09:11;;;;;;;4.10;2.20;;;5.50;99.90;;;;;;4913808;29;20233;-77
2020/12/26 18:11:37;;;;;;;2.67;2.00;;;5.50;99.90;;;;;;4909136;29;20233;-76
2020/12/26 18:14:04;;;;;;;3.50;2.40;;;5.40;99.90;;;;;;4900602;29;20206;-75
2020/12/26 18:16:30;;;;;;;4.83;2.37;;;5.40;99.90;;;;;;4914959;29;20334;-74
2020/12/26 18:18:57;;;;;;;6.27;2.50;;;5.40;99.90;;;;;;4906615;29;20274;-77
2020/12/26 18:21:23;;;;;;;3.17;1.53;;;5.40;99.90;;;;;;4906654;29;20233;-75
2020/12/26 18:23:49;;;;;;;3.97;2.30;;;5.40;99.90;;;;;;4902179;29;20233;-78
2020/12/26 18:26:15;;;;;;;3.57;2.30;;;5.30;99.90;;;;;;4894403;29;20238;-78
2020/12/26 18:28:41;;;;;;;3.43;2.17;;;5.30;99.90;;;;;;4901225;29;20213;-75
2020/12/26 18:31:09;;;;;;;4.63;1.97;;;5.40;99.90;;;;;;4897238;29;20210;-75
2020/12/26 18:33:35;;;;;;;2.90;2.10;;;5.40;99.90;;;;;;4897258;29;20217;-76
2020/12/26 18:36:06;;;;;;;2.87;1.33;;;5.40;99.90;;;;;;4893750;29;20202;-76
2020/12/26 18:38:32;;;;;;;3.93;2.30;;;5.40;99.90;;;;;;4896979;29;20578;-74
2020/12/26 18:40:58;;;;;;;6.97;2.13;;;5.40;99.90;;;;;;4896605;29;20351;-76
2020/12/26 18:43:24;;;;;;;2.53;1.77;;;5.40;99.90;;;;;;4896434;29;20218;-76
2020/12/26 18:45:51;;;;;;;3.17;1.90;;;5.50;99.90;;;;;;4896771;29;20238;-75
2020/12/26 18:48:18;;;;;;;5.37;2.17;;;5.40;99.90;;;;;;4904203;29;20212;-75
2020/12/26 18:50:44;;;;;;;3.00;2.00;;;5.40;99.90;;;;;;4915467;29;20212;-76
2020/12/26 18:53:10;;;;;;;2.70;1.80;;;5.40;99.90;;;;;;4915252;29;20637;-75
2020/12/26 18:55:36;;;;;;;4.27;1.77;;;5.40;99.90;;;;;;4915059;29;20214;-75
2020/12/26 18:58:03;;;;;;;2.80;2.20;;;5.40;99.90;;;;;;4914851;29;20561;-75
2020/12/26 19:00:29;;;;;;;3.07;2.17;;;5.30;99.90;;;;;;4900536;29;20742;-74
2020/12/26 19:02:55;;;;;;;5.27;2.27;;;5.40;99.90;;;;;;4909981;29;20720;-76
2020/12/26 19:05:22;;;;;;;4.53;2.07;;;5.40;99.90;;;;;;4900550;29;20727;-74
2020/12/26 19:07:48;;;;;;;2.37;1.63;;;5.40;99.90;;;;;;4915725;29;20216;-74
2020/12/26 19:10:15;;;;;;;3.87;2.20;;;5.40;99.90;;;;;;4915827;29;20206;-76
2020/12/26 19:12:41;;;;;;;2.40;1.70;;;5.40;99.90;;;;;;4916121;29;20225;-75
2020/12/26 19:15:08;;;;;;;4.17;2.33;;;5.40;99.90;;;;;;4914792;29;20681;-75
2020/12/26 19:17:34;;;;;;;2.77;1.80;;;5.40;99.90;;;;;;4904959;29;20222;-76
2020/12/26 19:20:01;;;;;;;2.47;1.50;;;5.50;99.90;;;;;;4904567;29;20674;-76
2020/12/26 19:22:30;;;;;;;2.20;1.53;;;5.50;99.90;;;;;;4900409;29;20321;-76
2020/12/26 19:24:56;;;;;;;3.17;2.10;;;5.40;99.90;;;;;;4900508;29;20242;-76
2020/12/26 19:27:24;;;;;;;1.90;1.63;;;5.50;99.90;;;;;;4900675;29;20269;-76
2020/12/26 19:29:50;;;;;;;2.97;1.87;;;5.50;99.90;;;;;;4899852;29;20215;-74
2020/12/26 19:32:21;;;;;;;3.30;1.43;;;5.50;99.90;;;;;;4899264;29;20702;-75
2020/12/26 19:34:47;;;;;;;4.00;2.00;;;5.50;99.90;;;;;;4900095;29;20214;-76
2020/12/26 19:37:14;;;;;;;2.57;1.77;;;5.60;99.90;;;;;;4897382;29;20211;-75
2020/12/26 19:39:41;;;;;;;2.03;1.70;;;5.60;99.90;;;;;;4899386;29;20210;-75
2020/12/26 19:42:07;;;;;;;3.40;1.50;;;5.60;99.90;;;;;;4900451;29;20242;-76
2020/12/26 19:44:34;;;;;;;3.50;1.80;;;5.60;99.90;;;;;;4899627;29;20666;-76
2020/12/26 19:47:00;;;;;;;2.33;1.60;;;5.70;99.90;;;;;;4900407;29;20667;-75
2020/12/26 19:49:27;;;;;;;2.07;1.50;;;5.80;99.90;;;;;;4899809;29;20218;-76
2020/12/26 19:51:57;;;;;;;1.80;1.43;;;5.70;99.90;;;;;;4900093;29;20233;-74
2020/12/26 19:54:23;;;;;;;11.47;1.80;;;5.70;99.90;;;;;;4900147;29;20217;-75
2020/12/26 19:56:51;;;;;;;3.23;1.80;;;5.70;99.90;;;;;;4899688;29;20222;-74
2020/12/26 19:59:17;;;;;;;4.07;1.80;;;5.60;99.90;;;;;;4912141;29;20229;-73
2020/12/26 20:01:43;;;;;;;4.17;2.00;;;5.60;99.90;;;;;;4901552;29;20234;-73
2020/12/26 20:04:09;;;;;;;2.97;1.80;;;5.70;99.90;;;;;;4899509;29;20665;-74
2020/12/26 20:06:36;;;;;;;1.80;1.50;;;5.80;99.90;;;;;;4899164;29;20270;-75
2020/12/26 20:09:02;;;;;;;2.33;1.47;;;5.80;99.90;;;;;;4906881;29;20210;-75
2020/12/26 20:11:28;;;;;;;1.63;1.10;;;5.80;99.90;;;;;;4902216;29;20230;-75
2020/12/26 20:13:55;;;;;;;2.13;1.50;;;5.70;99.90;;;;;;4899274;29;20211;-75
2020/12/26 20:16:24;;;;;;;3.67;1.60;;;5.60;99.90;;;;;;4898892;29;20214;-75
2020/12/26 20:18:50;;;;;;;2.13;1.33;;;5.60;99.90;;;;;;4899298;29;20713;-75
2020/12/26 20:21:17;;;;;;;2.57;1.60;;;5.60;99.90;;;;;;4899093;29;20319;-75
2020/12/26 20:23:43;;;;;;;4.03;1.97;;;5.60;99.90;;;;;;4899351;29;20346;-75
2020/12/26 20:26:14;;;;;;;2.57;1.57;;;5.50;99.90;;;;;;4898661;29;20245;-75
2020/12/26 20:28:40;;;;;;;2.57;1.70;;;5.50;99.90;;;;;;4899075;29;20236;-76
2020/12/26 20:31:10;;;;;;;2.73;1.50;;;5.40;99.90;;;;;;4899270;29;20215;-75
2020/12/26 20:33:36;;;;;;;6.40;1.60;;;5.30;99.90;;;;;;4898793;29;20211;-74
2020/12/26 20:36:06;;;;;;;1.50;1.30;;;5.30;99.90;;;;;;4899364;29;20219;-76
2020/12/26 20:38:32;;;;;;;2.63;1.73;;;5.30;99.90;;;;;;4899032;29;20221;-74
2020/12/26 20:40:59;;;;;;;2.40;1.63;;;5.30;99.90;;;;;;4898539;29;20229;-75
2020/12/26 20:43:25;;;;;;;2.27;1.50;;;5.20;99.90;;;;;;4900320;29;20218;-75
2020/12/26 20:45:51;;;;;;;5.30;2.60;;;5.30;99.90;;;;;;4899389;29;20241;-76
2020/12/26 20:48:18;;;;;;;2.67;1.50;;;5.30;99.90;;;;;;4899762;29;20222;-74
2020/12/26 20:50:44;;;;;;;2.07;1.60;;;5.30;99.90;;;;;;4899508;29;20691;-75
2020/12/26 20:53:11;;;;;;;2.37;1.80;;;5.30;99.90;;;;;;4899553;29;20226;-76
2020/12/26 20:55:37;;;;;;;4.97;2.00;;;5.30;99.90;;;;;;4899069;29;20218;-77
2020/12/26 20:58:04;;;;;;;3.47;1.43;;;5.20;99.90;;;;;;4910548;29;20201;-77
2020/12/26 21:00:30;;;;;;;3.77;1.77;;;5.30;99.90;;;;;;4916492;29;20558;-74
2020/12/26 21:02:56;;;;;;;2.57;1.63;;;5.30;99.90;;;;;;4918308;29;20229;-75
2020/12/26 21:05:23;;;;;;;1.70;1.30;;;5.30;99.90;;;;;;4918217;29;20593;-74
2020/12/26 21:07:49;;;;;;;2.03;1.43;;;5.30;99.90;;;;;;4914981;29;20222;-73
2020/12/26 21:10:16;;;;;;;4.13;2.10;;;5.30;99.90;;;;;;4917931;29;20661;-73
2020/12/26 21:12:42;;;;;;;3.27;1.93;;;5.40;99.90;;;;;;4917908;29;20234;-75
2020/12/26 21:15:09;;;;;;;3.90;1.90;;;5.40;99.90;;;;;;4918108;29;20221;-74
2020/12/26 21:17:35;;;;;;;3.77;1.77;;;5.40;99.90;;;;;;4915227;29;20206;-74
2020/12/26 21:20:04;;;;;;;4.57;2.17;;;5.40;99.90;;;;;;4909043;29;20546;-77
2020/12/26 21:22:32;;;;;;;3.07;2.17;;;5.40;99.90;;;;;;4913759;29;20597;-77
2020/12/26 21:24:58;;;;;;;3.73;2.63;;;5.40;99.90;;;;;;4914528;29;20245;-73
2020/12/26 21:27:24;;;;;;;5.43;1.93;;;5.50;99.90;;;;;;4917819;29;20213;-75
2020/12/26 21:29:50;;;;;;;3.13;2.00;;;5.50;99.90;;;;;;4917999;29;20673;-73